Raleigh, North Carolina
Current Conditions -  °F | °C
As of 11:51 AM on Wednesday 26 Nov 2014 (Local Time) from KRDU Reporting Station
Light Rain Light Rain  
Wind Chill: 42°   Ceiling: 1200
Heat Index: 45°   Visibility: 10mi
Dew Point: 41°   Wind: 6mph
Humidity: 86%   Direction: NA
Pressure: 29.92"   Gusts: NA
Location:  35.79°N, 78.64°W
Report Text: KRDU 261651Z VRB05KT 10SM -RA BKN012 OVC035 07/05 A2992 RMK AO2 RAB49 SLP130 CIG 010V014 P0000 T00720050 $
Loading
Personal Weather Stations






























Interactive Weather Map New forecast layout! Learn more

10-Day Weather Forecast

Advertisements
Track Severe Weather on mobile